createdAt,value
2022-08-19T00:02:17.676Z,6.28
2022-08-19T00:04:47.809Z,5.90
2022-08-19T00:07:15.662Z,6.35
2022-08-19T00:09:43.312Z,6.80
2022-08-19T00:12:11.522Z,6.18
2022-08-19T00:14:39.449Z,6.43
2022-08-19T00:17:09.232Z,6.05
2022-08-19T00:19:38.515Z,6.15
2022-08-19T00:22:06.873Z,6.38
2022-08-19T00:24:34.414Z,6.18
2022-08-19T00:27:24.832Z,5.90
2022-08-19T00:29:52.649Z,6.53
2022-08-19T00:32:21.437Z,6.50
2022-08-19T00:34:48.966Z,6.28
2022-08-19T00:37:16.453Z,5.97
2022-08-19T00:39:44.045Z,6.50
2022-08-19T00:42:12.071Z,6.30
2022-08-19T00:44:39.796Z,6.18
2022-08-19T00:47:07.805Z,5.88
2022-08-19T00:49:54.782Z,5.78
2022-08-19T00:52:36.678Z,5.47
2022-08-19T00:55:07.921Z,5.85
2022-08-19T00:57:41.990Z,6.00
2022-08-19T01:00:15.062Z,6.30
2022-08-19T01:02:43.838Z,6.00
2022-08-19T01:05:17.505Z,6.32
2022-08-19T01:07:45.465Z,6.53
2022-08-19T01:10:17.442Z,6.55
2022-08-19T01:12:47.379Z,6.95
2022-08-19T01:15:20.210Z,6.20
2022-08-19T01:17:48.564Z,7.13
2022-08-19T01:20:22.662Z,6.88
2022-08-19T01:23:08.696Z,6.90
2022-08-19T01:25:52.698Z,6.65
2022-08-19T01:28:39.976Z,6.38
2022-08-19T01:31:26.405Z,6.10
2022-08-19T01:33:57.203Z,6.40
2022-08-19T01:36:48.502Z,6.93
2022-08-19T01:39:22.594Z,5.80
2022-08-19T01:41:50.573Z,6.07
2022-08-19T01:44:21.489Z,6.47
2022-08-19T01:46:50.442Z,5.90
2022-08-19T01:49:22.121Z,6.07
2022-08-19T01:51:50.766Z,6.50
2022-08-19T01:54:23.388Z,6.18
2022-08-19T01:57:04.281Z,5.72
2022-08-19T01:59:33.246Z,5.55
2022-08-19T02:02:00.895Z,5.50
2022-08-19T02:04:28.515Z,6.03
2022-08-19T02:06:55.950Z,6.63
2022-08-19T02:09:23.384Z,6.25
2022-08-19T02:11:50.906Z,5.97
2022-08-19T02:14:18.562Z,6.75
2022-08-19T02:16:46.012Z,6.55
2022-08-19T02:19:14.086Z,6.53
2022-08-19T02:21:41.478Z,6.22
2022-08-19T02:24:08.934Z,5.53
2022-08-19T02:26:36.515Z,5.88
2022-08-19T02:29:04.166Z,6.30
2022-08-19T02:31:31.859Z,6.10
2022-08-19T02:34:00.427Z,6.35
2022-08-19T02:36:29.092Z,5.80
2022-08-19T02:38:57.945Z,5.90
2022-08-19T02:41:30.446Z,5.70
2022-08-19T02:44:28.533Z,5.68
2022-08-19T02:46:51.755Z,6.10
2022-08-19T02:49:20.964Z,6.32
2022-08-19T02:51:49.315Z,5.60
2022-08-19T02:54:17.441Z,5.85
2022-08-19T02:56:46.195Z,5.95
2022-08-19T02:59:13.783Z,6.70
2022-08-19T03:01:43.319Z,5.25
2022-08-19T03:04:17.057Z,6.38
2022-08-19T03:06:48.512Z,5.93
2022-08-19T03:09:17.780Z,6.38
2022-08-19T03:11:45.470Z,6.38
2022-08-19T03:14:14.338Z,6.82
2022-08-19T03:16:52.923Z,6.28
2022-08-19T03:19:25.181Z,6.22
2022-08-19T03:21:53.543Z,6.43
2022-08-19T03:24:22.187Z,6.15
2022-08-19T03:26:58.747Z,7.05
2022-08-19T03:29:30.762Z,6.55
2022-08-19T03:32:01.974Z,6.32
2022-08-19T03:34:35.797Z,6.50
2022-08-19T03:37:09.324Z,6.05
2022-08-19T03:43:44.501Z,6.22
2022-08-19T03:46:21.685Z,6.50
2022-08-19T03:48:55.688Z,5.82
2022-08-19T03:51:36.035Z,6.82
2022-08-19T03:54:07.735Z,6.70
2022-08-19T03:56:38.871Z,6.25
2022-08-19T04:01:37.051Z,6.20
2022-08-19T04:04:05.569Z,6.05
2022-08-19T04:06:38.860Z,7.00
2022-08-19T04:09:11.969Z,6.47
2022-08-19T04:11:54.849Z,6.68
2022-08-19T04:14:27.262Z,7.50
2022-08-19T04:16:55.295Z,6.82
2022-08-19T04:19:24.406Z,6.55
2022-08-19T04:21:55.315Z,6.95
2022-08-19T04:24:23.912Z,5.53
2022-08-19T04:26:51.974Z,6.68
2022-08-19T04:29:26.160Z,5.97
2022-08-19T04:31:56.742Z,5.70
2022-08-19T04:34:27.301Z,6.45
2022-08-19T04:36:57.806Z,5.35
2022-08-19T04:39:49.470Z,6.20
2022-08-19T04:42:38.629Z,5.63
2022-08-19T04:45:12.479Z,6.07
2022-08-19T04:47:48.038Z,5.63
2022-08-19T04:50:19.833Z,5.72
2022-08-19T04:52:47.360Z,5.80
2022-08-19T04:55:15.686Z,6.47
2022-08-19T04:57:43.104Z,6.45
2022-08-19T05:00:11.987Z,6.75
2022-08-19T05:02:40.502Z,7.05
2022-08-19T05:05:08.907Z,7.13
2022-08-19T05:07:36.997Z,7.25
2022-08-19T05:10:07.730Z,7.18
2022-08-19T05:12:35.473Z,6.82
2022-08-19T05:15:05.261Z,7.18
2022-08-19T05:17:37.778Z,6.60
2022-08-19T05:20:26.852Z,7.35
2022-08-19T05:22:54.426Z,7.22
2022-08-19T05:25:23.027Z,6.05
2022-08-19T05:27:50.950Z,7.13
2022-08-19T05:30:33.648Z,6.35
2022-08-19T05:33:07.586Z,6.18
2022-08-19T05:35:35.336Z,6.47
2022-08-19T05:38:02.868Z,5.88
2022-08-19T05:40:30.686Z,6.70
2022-08-19T05:42:58.248Z,6.65
2022-08-19T05:45:25.850Z,6.53
2022-08-19T05:47:53.335Z,5.82
2022-08-19T05:50:21.575Z,6.15
2022-08-19T05:52:50.064Z,6.43
2022-08-19T05:55:18.343Z,6.88
2022-08-19T05:57:45.943Z,7.05
2022-08-19T06:00:15.153Z,6.82
2022-08-19T06:02:42.706Z,6.75
2022-08-19T06:05:11.255Z,6.57
2022-08-19T06:07:41.323Z,6.20
2022-08-19T06:10:12.569Z,6.30
2022-08-19T06:15:11.717Z,5.97
2022-08-19T06:17:39.717Z,5.78
2022-08-19T06:20:14.601Z,6.78
2022-08-19T06:22:50.800Z,6.03
2022-08-19T06:25:18.925Z,6.32
2022-08-19T06:28:13.885Z,5.97
2022-08-19T06:30:34.884Z,6.68
2022-08-19T06:33:02.468Z,6.30
2022-08-19T06:35:30.736Z,5.95
2022-08-19T06:37:59.337Z,6.35
2022-08-19T06:40:28.705Z,5.57
2022-08-19T06:42:57.563Z,5.50
2022-08-19T06:45:34.412Z,5.65
2022-08-19T06:48:02.813Z,5.80
2022-08-19T06:50:31.011Z,6.18
2022-08-19T06:53:01.497Z,5.55
2022-08-19T06:55:33.492Z,5.32
2022-08-19T06:58:05.173Z,5.40
2022-08-19T07:00:33.448Z,5.43
2022-08-19T07:03:06.089Z,6.03
2022-08-19T07:05:43.114Z,5.50
2022-08-19T07:08:14.956Z,5.50
2022-08-19T07:10:47.550Z,5.13
2022-08-19T07:13:15.736Z,5.30
2022-08-19T07:15:44.052Z,5.55
2022-08-19T07:18:12.103Z,5.30
2022-08-19T07:20:41.922Z,5.75
2022-08-19T07:23:16.185Z,5.35
2022-08-19T07:25:45.061Z,5.20
2022-08-19T07:28:23.997Z,4.75
2022-08-19T07:30:53.340Z,5.57
2022-08-19T07:33:21.942Z,4.60
2022-08-19T07:35:50.503Z,4.82
2022-08-19T07:38:18.395Z,4.45
2022-08-19T07:40:47.379Z,4.53
2022-08-19T07:43:17.911Z,4.18
2022-08-19T07:45:50.946Z,4.28
2022-08-19T07:48:18.490Z,3.60
2022-08-19T07:50:46.665Z,4.65
2022-08-19T07:53:14.404Z,4.00
2022-08-19T07:55:43.808Z,3.65
2022-08-19T07:58:15.355Z,3.80
2022-08-19T08:00:44.663Z,3.88
2022-08-19T08:03:13.186Z,3.90
2022-08-19T08:05:59.475Z,3.55
2022-08-19T08:08:48.216Z,3.60
2022-08-19T08:11:21.553Z,4.18
2022-08-19T08:14:00.932Z,4.47
2022-08-19T08:16:47.359Z,4.15
2022-08-19T08:19:25.384Z,4.63
2022-08-19T08:21:56.839Z,4.15
2022-08-19T08:24:28.268Z,4.57
2022-08-19T08:26:58.926Z,4.07
2022-08-19T08:29:34.520Z,4.68
2022-08-19T08:32:14.224Z,4.47
2022-08-19T08:34:43.697Z,3.75
2022-08-19T08:37:11.473Z,4.88
2022-08-19T08:39:39.204Z,4.75
2022-08-19T08:42:29.796Z,4.70
2022-08-19T08:45:14.247Z,4.60
2022-08-19T08:47:50.437Z,4.80
2022-08-19T08:50:36.921Z,5.22
2022-08-19T08:53:07.503Z,4.75
2022-08-19T08:55:36.939Z,4.32
2022-08-19T08:58:15.192Z,4.03
2022-08-19T09:00:46.679Z,3.90
2022-08-19T09:03:25.851Z,4.55
2022-08-19T09:06:14.913Z,4.57
2022-08-19T09:09:36.264Z,3.70
2022-08-19T09:12:26.957Z,3.80
2022-08-19T09:17:36.401Z,3.50
2022-08-19T09:20:23.009Z,3.35
2022-08-19T09:22:51.007Z,4.22
2022-08-19T09:25:24.756Z,4.10
2022-08-19T09:28:03.001Z,4.90
2022-08-19T09:30:41.330Z,5.53
2022-08-19T09:33:09.474Z,6.25
2022-08-19T09:35:49.925Z,5.88
2022-08-19T09:38:22.462Z,5.78
2022-08-19T09:40:51.003Z,5.43
2022-08-19T09:43:32.810Z,6.70
2022-08-19T09:46:02.682Z,7.75
2022-08-19T09:48:30.426Z,6.88
2022-08-19T09:51:11.756Z,7.05
2022-08-19T09:53:40.218Z,7.28
2022-08-19T09:56:08.467Z,8.65
2022-08-19T09:58:37.873Z,8.18
2022-08-19T10:01:07.340Z,9.27
2022-08-19T10:03:37.598Z,8.68
2022-08-19T10:06:14.906Z,8.90
2022-08-19T10:08:50.250Z,8.90
2022-08-19T10:11:28.553Z,8.80
2022-08-19T10:14:07.079Z,8.93
2022-08-19T10:16:39.518Z,7.53
2022-08-19T10:19:07.658Z,8.30
2022-08-19T10:21:35.570Z,7.28
2022-08-19T10:24:06.487Z,7.97
2022-08-19T10:26:38.294Z,7.70
2022-08-19T10:29:09.471Z,8.00
2022-08-19T10:31:58.790Z,8.30
2022-08-19T10:34:28.533Z,7.65
2022-08-19T10:37:00.956Z,8.45
2022-08-19T10:39:43.444Z,8.02
2022-08-19T10:42:12.832Z,7.60
2022-08-19T10:44:40.656Z,7.85
2022-08-19T10:47:17.169Z,6.65
2022-08-19T10:50:14.211Z,6.13
2022-08-19T10:52:49.466Z,6.43
2022-08-19T10:55:40.432Z,6.60
2022-08-19T10:58:24.852Z,6.47
2022-08-19T11:00:58.829Z,6.10
2022-08-19T11:03:30.582Z,6.10
2022-08-19T11:06:10.083Z,5.82
2022-08-19T11:08:40.009Z,7.05
2022-08-19T11:11:08.992Z,6.03
2022-08-19T11:13:40.601Z,5.35
2022-08-19T11:16:19.149Z,5.85
2022-08-19T11:18:59.538Z,5.40
2022-08-19T11:21:44.253Z,5.38
2022-08-19T11:24:24.290Z,5.65
2022-08-19T11:26:57.981Z,5.50
2022-08-19T11:29:28.979Z,5.47
2022-08-19T11:31:56.799Z,5.43
2022-08-19T11:34:29.494Z,5.57
2022-08-19T11:37:01.735Z,6.28
2022-08-19T11:39:32.182Z,4.68
2022-08-19T11:42:00.953Z,6.18
2022-08-19T11:44:31.577Z,5.38
2022-08-19T11:47:09.320Z,4.75
2022-08-19T11:49:37.239Z,4.47
2022-08-19T11:52:04.931Z,4.95
2022-08-19T11:54:32.534Z,4.60
2022-08-19T11:57:00.144Z,4.63
2022-08-19T11:59:28.388Z,4.15
2022-08-19T12:01:58.327Z,4.07
2022-08-19T12:04:26.032Z,3.72
2022-08-19T12:06:54.216Z,3.20
2022-08-19T12:09:23.385Z,3.85
2022-08-19T12:11:52.009Z,3.03
2022-08-19T12:14:19.725Z,3.72
2022-08-19T12:16:50.944Z,3.58
2022-08-19T12:19:21.865Z,2.97
2022-08-19T12:21:51.552Z,2.80
2022-08-19T12:24:24.523Z,3.40
2022-08-19T12:26:53.883Z,2.88
2022-08-19T12:29:24.338Z,3.00
2022-08-19T12:31:52.633Z,3.00
2022-08-19T12:34:21.322Z,2.15
2022-08-19T12:36:50.634Z,2.80
2022-08-19T12:39:19.618Z,2.80
2022-08-19T12:41:55.022Z,2.00
2022-08-19T12:44:28.892Z,2.70
2022-08-19T12:47:00.228Z,2.60
2022-08-19T12:49:54.093Z,2.35
2022-08-19T12:52:25.741Z,2.42
2022-08-19T12:54:56.029Z,2.25
2022-08-19T12:57:32.888Z,2.47
2022-08-19T13:00:14.705Z,2.00
2022-08-19T13:02:46.720Z,2.33
2022-08-19T13:05:21.095Z,2.20
2022-08-19T13:07:48.767Z,2.38
2022-08-19T13:10:20.775Z,3.05
2022-08-19T13:12:51.673Z,2.58
2022-08-19T13:15:23.783Z,2.38
2022-08-19T13:17:54.442Z,2.10
2022-08-19T13:20:23.319Z,2.60
2022-08-19T13:22:51.171Z,2.15
2022-08-19T13:25:21.000Z,2.00
2022-08-19T13:27:50.700Z,2.30
2022-08-19T13:30:39.462Z,1.90
2022-08-19T13:33:16.284Z,2.28
2022-08-19T13:35:58.299Z,2.25
2022-08-19T13:38:26.279Z,2.30
2022-08-19T13:40:55.275Z,2.22
2022-08-19T13:43:26.706Z,2.28
2022-08-19T13:45:59.303Z,2.33
2022-08-19T13:48:28.146Z,2.30
2022-08-19T13:50:59.747Z,2.20
2022-08-19T13:53:27.406Z,2.28
2022-08-19T13:55:55.164Z,2.50
2022-08-19T13:58:24.086Z,2.20
2022-08-19T14:00:51.942Z,2.30
2022-08-19T14:03:19.430Z,2.40
2022-08-19T14:05:47.911Z,2.50
2022-08-19T14:08:15.419Z,2.33
2022-08-19T14:10:45.579Z,2.20
2022-08-19T14:13:18.520Z,2.30
2022-08-19T14:15:47.209Z,2.38
2022-08-19T14:18:16.184Z,2.30
2022-08-19T14:20:44.135Z,2.10
2022-08-19T14:23:13.976Z,2.22
2022-08-19T14:25:41.731Z,2.60
2022-08-19T14:28:09.404Z,2.47
2022-08-19T14:30:38.931Z,2.30
2022-08-19T14:33:08.527Z,2.40
2022-08-19T14:35:36.169Z,2.35
2022-08-19T14:38:08.558Z,2.28
2022-08-19T14:40:36.419Z,2.67
2022-08-19T14:43:06.275Z,2.20
2022-08-19T14:45:38.737Z,2.55
2022-08-19T14:48:34.951Z,1.98
2022-08-19T14:55:09.520Z,2.53
2022-08-19T14:57:37.470Z,2.47
2022-08-19T15:00:06.722Z,2.35
2022-08-19T15:02:35.514Z,2.30
2022-08-19T15:05:03.710Z,2.40
2022-08-19T15:07:31.455Z,2.40
2022-08-19T15:09:59.686Z,2.10
2022-08-19T15:12:27.421Z,2.25
2022-08-19T15:14:57.026Z,2.50
2022-08-19T15:17:43.475Z,2.30
2022-08-19T15:20:20.554Z,2.38
2022-08-19T15:22:48.244Z,2.33
2022-08-19T15:25:19.854Z,2.28
2022-08-19T15:27:48.333Z,2.17
2022-08-19T15:30:28.276Z,2.47
2022-08-19T15:32:59.382Z,2.08
2022-08-19T15:35:29.544Z,2.00
2022-08-19T15:40:27.445Z,2.28
2022-08-19T15:42:55.491Z,2.35
2022-08-19T15:45:23.255Z,2.30
2022-08-19T15:47:50.685Z,2.03
2022-08-19T15:50:24.014Z,2.30
2022-08-19T15:52:55.212Z,2.33
2022-08-19T15:55:33.341Z,2.40
2022-08-19T15:58:29.059Z,2.30
2022-08-19T16:01:23.874Z,2.40
2022-08-19T16:04:14.909Z,2.65
2022-08-19T16:06:57.571Z,2.35
2022-08-19T16:09:29.388Z,2.35
2022-08-19T16:12:04.467Z,2.78
2022-08-19T16:14:35.562Z,2.97
2022-08-19T16:17:03.733Z,2.83
2022-08-19T16:19:33.485Z,2.30
2022-08-19T16:22:00.999Z,2.40
2022-08-19T16:24:29.684Z,3.00
2022-08-19T16:26:57.523Z,2.80
2022-08-19T16:29:34.461Z,2.88
2022-08-19T16:32:12.481Z,2.75
2022-08-19T16:34:42.474Z,3.20
2022-08-19T16:37:10.518Z,3.05
2022-08-19T16:39:38.997Z,2.15
2022-08-19T16:42:09.494Z,2.50
2022-08-19T16:47:14.444Z,3.63
2022-08-19T16:49:54.611Z,2.95
2022-08-19T16:52:27.279Z,3.08
2022-08-19T16:54:55.263Z,2.65
2022-08-19T16:57:24.081Z,2.90
2022-08-19T16:59:52.575Z,3.28
2022-08-19T17:02:23.451Z,3.38
2022-08-19T17:04:58.801Z,2.90
2022-08-19T17:07:28.734Z,3.53
2022-08-19T17:09:57.483Z,3.47
2022-08-19T17:12:30.718Z,3.03
2022-08-19T17:15:02.898Z,3.10
2022-08-19T17:17:32.251Z,2.95
2022-08-19T17:20:01.396Z,13.45
2022-08-19T17:22:28.987Z,2.72
2022-08-19T17:24:58.048Z,2.40
2022-08-19T17:27:32.484Z,2.95
2022-08-19T17:30:05.420Z,2.97
2022-08-19T17:32:35.236Z,2.80
2022-08-19T17:35:04.390Z,2.50
2022-08-19T17:37:32.674Z,2.42
2022-08-19T17:40:03.002Z,2.60
2022-08-19T17:42:30.590Z,2.70
2022-08-19T17:45:00.890Z,2.90
2022-08-19T17:47:29.598Z,2.83
2022-08-19T17:49:58.789Z,2.88
2022-08-19T17:52:26.714Z,3.30
2022-08-19T17:54:54.285Z,2.92
2022-08-19T17:57:22.013Z,3.00
2022-08-19T17:59:50.634Z,2.90
2022-08-19T18:02:20.634Z,3.33
2022-08-19T18:04:49.665Z,2.85
2022-08-19T18:07:21.761Z,2.95
2022-08-19T18:09:52.774Z,2.97
2022-08-19T18:12:29.128Z,2.72
2022-08-19T18:14:58.862Z,3.05
2022-08-19T18:17:26.351Z,3.30
2022-08-19T18:19:53.903Z,3.20
2022-08-19T18:22:28.145Z,3.00
2022-08-19T18:24:58.451Z,2.85
2022-08-19T18:27:27.932Z,3.50
2022-08-19T18:29:59.927Z,3.47
2022-08-19T18:32:35.245Z,3.40
2022-08-19T18:35:10.202Z,3.05
2022-08-19T18:37:43.169Z,3.70
2022-08-19T18:40:34.534Z,2.92
2022-08-19T18:43:20.812Z,3.45
2022-08-19T18:46:07.409Z,2.95
2022-08-19T18:48:55.383Z,3.53
2022-08-19T18:51:27.781Z,3.30
2022-08-19T18:53:59.039Z,3.38
2022-08-19T18:56:31.940Z,3.72
2022-08-19T18:59:01.594Z,3.55
2022-08-19T19:01:39.675Z,3.50
2022-08-19T19:04:13.366Z,3.25
2022-08-19T19:06:42.797Z,3.90
2022-08-19T19:09:13.053Z,3.13
2022-08-19T19:11:44.280Z,3.33
2022-08-19T19:14:27.648Z,3.38
2022-08-19T19:17:07.842Z,4.00
2022-08-19T19:19:35.853Z,3.90
2022-08-19T19:22:04.877Z,3.45
2022-08-19T19:24:37.774Z,3.25
2022-08-19T19:27:08.619Z,3.20
2022-08-19T19:29:37.488Z,3.50
2022-08-19T19:32:19.582Z,3.67
2022-08-19T19:34:47.368Z,3.42
2022-08-19T19:37:16.544Z,3.75
2022-08-19T19:39:47.761Z,3.53
2022-08-19T19:42:24.514Z,3.85
2022-08-19T19:44:55.476Z,3.80
2022-08-19T19:47:24.622Z,3.10
2022-08-19T19:52:41.522Z,3.75
2022-08-19T19:55:15.769Z,3.45
2022-08-19T19:57:43.336Z,3.67
2022-08-19T20:00:13.687Z,3.60
2022-08-19T20:02:46.645Z,3.75
2022-08-19T20:05:21.391Z,4.00
2022-08-19T20:08:09.540Z,4.15
2022-08-19T20:10:38.101Z,4.00
2022-08-19T20:13:07.300Z,3.75
2022-08-19T20:15:39.060Z,4.00
2022-08-19T20:18:12.400Z,4.03
2022-08-19T20:20:40.194Z,3.80
2022-08-19T20:23:08.428Z,4.10
2022-08-19T20:25:39.996Z,3.70
2022-08-19T20:28:07.668Z,3.83
2022-08-19T20:30:36.377Z,4.38
2022-08-19T20:33:07.504Z,4.43
2022-08-19T20:35:37.135Z,3.50
2022-08-19T20:38:08.806Z,3.70
2022-08-19T20:40:39.787Z,3.95
2022-08-19T20:43:13.162Z,3.83
2022-08-19T20:45:40.932Z,4.25
2022-08-19T20:48:13.348Z,3.20
2022-08-19T20:50:41.148Z,3.67
2022-08-19T20:53:15.610Z,3.63
2022-08-19T20:55:51.640Z,3.75
2022-08-19T20:58:22.017Z,4.28
2022-08-19T21:00:52.577Z,4.13
2022-08-19T21:03:24.078Z,3.72
2022-08-19T21:05:51.624Z,3.72
2022-08-19T21:08:19.831Z,3.65
2022-08-19T21:10:49.388Z,3.42
2022-08-19T21:13:18.844Z,3.70
2022-08-19T21:15:46.913Z,3.88
2022-08-19T21:18:18.030Z,4.20
2022-08-19T21:23:20.118Z,4.00
2022-08-19T21:25:54.557Z,4.15
2022-08-19T21:28:34.354Z,3.75
2022-08-19T21:31:06.399Z,3.83
2022-08-19T21:33:33.946Z,4.03
2022-08-19T21:36:01.429Z,4.25
2022-08-19T21:38:29.187Z,4.13
2022-08-19T21:40:56.905Z,4.03
2022-08-19T21:43:25.096Z,4.03
2022-08-19T21:45:52.585Z,4.05
2022-08-19T21:48:20.183Z,4.72
2022-08-19T21:50:48.363Z,4.45
2022-08-19T21:53:22.744Z,3.83
2022-08-19T21:55:53.717Z,4.30
2022-08-19T21:58:28.207Z,3.70
2022-08-19T22:01:05.963Z,3.78
2022-08-19T22:03:37.775Z,4.53
2022-08-19T22:06:06.669Z,4.15
2022-08-19T22:08:34.365Z,3.67
2022-08-19T22:11:05.263Z,4.18
2022-08-19T22:13:40.227Z,3.88
2022-08-19T22:16:08.915Z,4.05
2022-08-19T22:18:36.497Z,3.90
2022-08-19T22:21:11.302Z,4.30
2022-08-19T22:23:40.887Z,4.32
2022-08-19T22:26:08.954Z,4.63
2022-08-19T22:28:36.672Z,4.65
2022-08-19T22:31:06.205Z,3.85
2022-08-19T22:33:34.294Z,4.22
2022-08-19T22:36:01.747Z,4.20
2022-08-19T22:38:29.324Z,4.32
2022-08-19T22:40:57.482Z,4.28
2022-08-19T22:43:32.612Z,4.28
2022-08-19T22:46:01.186Z,4.18
2022-08-19T22:48:32.825Z,4.78
2022-08-19T22:51:19.867Z,4.15
2022-08-19T22:53:47.973Z,4.45
2022-08-19T22:56:18.699Z,4.13
2022-08-19T22:58:50.005Z,4.32
2022-08-19T23:01:30.014Z,4.70
2022-08-19T23:04:00.272Z,4.15
2022-08-19T23:06:33.781Z,4.40
2022-08-19T23:11:42.106Z,4.55
2022-08-19T23:14:11.533Z,4.32
2022-08-19T23:16:41.408Z,4.57
2022-08-19T23:19:09.414Z,4.80
2022-08-19T23:21:37.532Z,5.07
2022-08-19T23:24:05.689Z,3.95
2022-08-19T23:26:35.933Z,4.40
2022-08-19T23:29:24.281Z,4.07
2022-08-19T23:31:51.975Z,4.20
2022-08-19T23:34:19.571Z,4.50
2022-08-19T23:36:47.061Z,4.95
2022-08-19T23:39:14.657Z,4.35
2022-08-19T23:41:42.204Z,4.30
2022-08-19T23:44:14.434Z,5.03
2022-08-19T23:46:55.153Z,4.50
2022-08-19T23:49:25.421Z,4.68
2022-08-19T23:51:54.621Z,4.68
2022-08-19T23:54:22.456Z,4.90
2022-08-19T23:57:01.765Z,4.53
2022-08-19T23:59:29.408Z,4.18
